Time;durP1;ratioP1;P1;durP2;ratioP2;P2;SDS_P1;SDS_P2;PMS_P1;PMS_P2;Temp;Humidity;BMP_temperature;BMP_pressure;BME280_temperature;BME280_humidity;BME280_pressure;Samples;Min_cycle;Max_cycle;Signal;HPM_P1;HPM_P2
2021/12/30 00:02:08;;;;;;;22.77;9.07;;;;;;;;;;5070686;28;20029;-63
2021/12/30 00:04:33;;;;;;;23.95;9.48;;;;;;;;;;5070164;28;20466;-63
2021/12/30 00:06:59;;;;;;;31.90;8.50;;;;;;;;;;5070897;28;20489;-63
2021/12/30 00:09:25;;;;;;;28.58;8.95;;;;;;;;;;5070327;28;20365;-63
2021/12/30 00:11:51;;;;;;;26.13;9.55;;;;;;;;;;5071056;28;20184;-62
2021/12/30 00:14:16;;;;;;;29.27;9.40;;;;;;;;;;5068982;28;20048;-62
2021/12/30 00:16:42;;;;;;;34.22;9.85;;;;;;;;;;5071219;28;20458;-62
2021/12/30 00:19:08;;;;;;;23.90;8.32;;;;;;;;;;5071640;28;20055;-62
2021/12/30 00:21:33;;;;;;;25.15;9.32;;;;;;;;;;5071009;28;20032;-62
2021/12/30 00:23:58;;;;;;;33.17;10.10;;;;;;;;;;5071661;28;20028;-62
2021/12/30 00:26:24;;;;;;;26.48;9.73;;;;;;;;;;5069673;28;20028;-62
2021/12/30 00:28:49;;;;;;;28.52;10.95;;;;;;;;;;5060216;28;20036;-62
2021/12/30 00:31:15;;;;;;;35.00;11.80;;;;;;;;;;5071995;28;20393;-62
2021/12/30 00:33:41;;;;;;;28.58;11.75;;;;;;;;;;5068967;28;20040;-62
2021/12/30 00:36:09;;;;;;;33.45;12.50;;;;;;;;;;5070310;28;20107;-62
2021/12/30 00:38:37;;;;;;;34.65;13.50;;;;;;;;;;5069898;28;20113;-62
2021/12/30 00:41:03;;;;;;;32.72;13.10;;;;;;;;;;5070107;28;20043;-63
2021/12/30 00:43:29;;;;;;;29.65;11.52;;;;;;;;;;5070221;28;20025;-63
2021/12/30 00:45:54;;;;;;;31.60;13.10;;;;;;;;;;5070453;28;20094;-62
2021/12/30 00:48:20;;;;;;;32.67;12.40;;;;;;;;;;5066345;28;20108;-64
2021/12/30 00:50:47;;;;;;;38.38;14.27;;;;;;;;;;5070196;28;20116;-62
2021/12/30 00:53:12;;;;;;;34.30;13.57;;;;;;;;;;5072060;28;20046;-62
2021/12/30 00:55:39;;;;;;;31.58;12.48;;;;;;;;;;5069557;28;20410;-62
2021/12/30 00:58:05;;;;;;;37.47;14.23;;;;;;;;;;5069274;28;20090;-63
2021/12/30 01:00:32;;;;;;;32.88;11.90;;;;;;;;;;5068491;28;20108;-62
2021/12/30 01:02:57;;;;;;;31.10;12.68;;;;;;;;;;5071802;28;20112;-62
2021/12/30 01:05:23;;;;;;;26.45;10.45;;;;;;;;;;5070632;28;20437;-65
2021/12/30 01:07:49;;;;;;;35.10;10.57;;;;;;;;;;5070032;28;20034;-63
2021/12/30 01:10:20;;;;;;;34.72;12.00;;;;;;;;;;5068851;28;20476;-63
2021/12/30 01:12:46;;;;;;;26.77;11.27;;;;;;;;;;5068205;28;20036;-63
2021/12/30 01:15:13;;;;;;;29.20;11.90;;;;;;;;;;5069523;28;20752;-63
2021/12/30 01:17:58;;;;;;;30.60;10.48;;;;;;;;;;5069352;28;20078;-63
2021/12/30 01:20:24;;;;;;;29.05;10.75;;;;;;;;;;5068295;28;20094;-66
2021/12/30 01:22:52;;;;;;;30.50;10.35;;;;;;;;;;5071014;28;20040;-63
2021/12/30 01:25:17;;;;;;;27.38;10.07;;;;;;;;;;5071222;28;20060;-63
2021/12/30 01:27:44;;;;;;;28.55;10.02;;;;;;;;;;5068036;28;20657;-63
2021/12/30 01:30:16;;;;;;;28.08;9.98;;;;;;;;;;5068734;28;20078;-63
2021/12/30 01:32:42;;;;;;;31.23;9.75;;;;;;;;;;5066409;28;20044;-63
2021/12/30 01:35:12;;;;;;;30.35;9.80;;;;;;;;;;5066199;28;20032;-63
2021/12/30 01:37:38;;;;;;;26.88;9.15;;;;;;;;;;5069868;28;20107;-63
2021/12/30 01:40:12;;;;;;;31.20;9.35;;;;;;;;;;5070448;28;20040;-63
2021/12/30 01:42:37;;;;;;;34.28;10.00;;;;;;;;;;5069353;28;20036;-63
2021/12/30 01:45:05;;;;;;;25.45;9.25;;;;;;;;;;5068675;28;20033;-63
2021/12/30 01:47:30;;;;;;;26.52;9.60;;;;;;;;;;5069278;28;20036;-64
2021/12/30 01:49:55;;;;;;;38.05;9.27;;;;;;;;;;5070512;28;20033;-63
2021/12/30 01:52:21;;;;;;;26.98;9.50;;;;;;;;;;5071689;28;20393;-65
2021/12/30 01:54:47;;;;;;;34.63;10.65;;;;;;;;;;5069292;28;20043;-63
2021/12/30 01:57:12;;;;;;;28.42;9.80;;;;;;;;;;5070139;28;20032;-63
2021/12/30 01:59:38;;;;;;;34.92;11.15;;;;;;;;;;5061268;28;20102;-63
2021/12/30 02:02:03;;;;;;;30.63;10.52;;;;;;;;;;5069842;28;20041;-63
2021/12/30 02:04:30;;;;;;;25.80;8.75;;;;;;;;;;5068273;28;20037;-64
2021/12/30 02:06:56;;;;;;;28.45;8.88;;;;;;;;;;5070595;28;20166;-63
2021/12/30 02:09:23;;;;;;;29.48;9.65;;;;;;;;;;5069933;28;20050;-63
2021/12/30 02:11:49;;;;;;;30.17;8.63;;;;;;;;;;5070368;28;20489;-63
2021/12/30 02:14:16;;;;;;;27.73;8.98;;;;;;;;;;5064482;28;20052;-63
2021/12/30 02:16:42;;;;;;;28.17;8.65;;;;;;;;;;5066371;28;20043;-63
2021/12/30 02:19:08;;;;;;;29.00;9.00;;;;;;;;;;5070137;28;20132;-63
2021/12/30 02:21:33;;;;;;;32.05;9.45;;;;;;;;;;5070367;28;20039;-63
2021/12/30 02:23:59;;;;;;;28.85;9.23;;;;;;;;;;5070481;28;20033;-63
2021/12/30 02:26:25;;;;;;;29.73;8.98;;;;;;;;;;5067735;28;20025;-61
2021/12/30 02:28:51;;;;;;;31.75;9.82;;;;;;;;;;5071400;28;20542;-63
2021/12/30 02:31:24;;;;;;;31.05;8.55;;;;;;;;;;5074074;28;20123;-62
2021/12/30 02:33:50;;;;;;;30.50;8.70;;;;;;;;;;5071775;28;20223;-64
2021/12/30 02:36:22;;;;;;;31.02;8.82;;;;;;;;;;5062278;28;20751;-63
2021/12/30 02:38:47;;;;;;;25.80;8.80;;;;;;;;;;5074064;28;20032;-63
2021/12/30 02:41:17;;;;;;;29.13;8.52;;;;;;;;;;5055226;28;20043;-63
2021/12/30 02:43:43;;;;;;;29.58;8.40;;;;;;;;;;5074478;28;20024;-62
2021/12/30 02:46:09;;;;;;;28.02;8.82;;;;;;;;;;5067587;28;20070;-62
2021/12/30 02:48:37;;;;;;;32.13;8.90;;;;;;;;;;5072884;28;20033;-63
2021/12/30 02:51:06;;;;;;;30.58;8.68;;;;;;;;;;5073115;28;20138;-63
2021/12/30 02:53:33;;;;;;;26.05;8.13;;;;;;;;;;5073758;28;20520;-63
2021/12/30 02:55:59;;;;;;;30.55;8.68;;;;;;;;;;5073752;28;20090;-62
2021/12/30 02:58:25;;;;;;;26.08;8.43;;;;;;;;;;5068228;28;20029;-63
2021/12/30 03:01:07;;;;;;;28.20;7.80;;;;;;;;;;5069533;28;20125;-63
2021/12/30 03:03:32;;;;;;;28.23;8.40;;;;;;;;;;5070186;28;20056;-66
2021/12/30 03:06:01;;;;;;;27.33;9.00;;;;;;;;;;5070711;28;20546;-62
2021/12/30 03:08:27;;;;;;;26.98;9.02;;;;;;;;;;5073803;28;20212;-63
2021/12/30 03:10:53;;;;;;;27.00;8.88;;;;;;;;;;5073843;28;20043;-63
2021/12/30 03:13:25;;;;;;;28.88;8.43;;;;;;;;;;5074035;28;20053;-63
2021/12/30 03:15:51;;;;;;;28.35;8.75;;;;;;;;;;5070988;28;20017;-63
2021/12/30 03:18:17;;;;;;;30.33;9.63;;;;;;;;;;5071063;28;20020;-63
2021/12/30 03:20:42;;;;;;;27.92;9.23;;;;;;;;;;5071528;28;20059;-63
2021/12/30 03:23:08;;;;;;;37.85;10.15;;;;;;;;;;5072201;28;20382;-63
2021/12/30 03:25:33;;;;;;;35.47;9.93;;;;;;;;;;5071431;28;20095;-64
2021/12/30 03:27:59;;;;;;;33.42;9.30;;;;;;;;;;5072189;28;20078;-64
2021/12/30 03:30:25;;;;;;;33.17;9.52;;;;;;;;;;5071640;28;20446;-64
2021/12/30 03:32:50;;;;;;;37.53;10.57;;;;;;;;;;5069849;28;20033;-63
2021/12/30 03:35:17;;;;;;;37.10;10.10;;;;;;;;;;5073722;28;20032;-63
2021/12/30 03:37:43;;;;;;;38.85;10.50;;;;;;;;;;5071536;28;20036;-64
2021/12/30 03:40:12;;;;;;;40.03;10.65;;;;;;;;;;5071235;28;20079;-64
2021/12/30 03:42:38;;;;;;;41.60;11.00;;;;;;;;;;5070513;28;20033;-64
2021/12/30 03:45:07;;;;;;;41.15;12.50;;;;;;;;;;5068226;28;20025;-63
2021/12/30 03:47:36;;;;;;;35.50;10.63;;;;;;;;;;5054136;28;20036;-65
2021/12/30 03:50:03;;;;;;;37.85;11.02;;;;;;;;;;5072420;28;20031;-63
2021/12/30 03:52:30;;;;;;;32.70;11.30;;;;;;;;;;5072635;28;20032;-63
2021/12/30 03:54:56;;;;;;;48.28;12.13;;;;;;;;;;5070862;28;20024;-63
2021/12/30 03:57:22;;;;;;;34.67;10.70;;;;;;;;;;5067527;28;20039;-63
2021/12/30 03:59:47;;;;;;;36.47;11.50;;;;;;;;;;5069216;28;20389;-63
2021/12/30 04:02:13;;;;;;;35.97;11.05;;;;;;;;;;5072806;28;20036;-63
2021/12/30 04:04:38;;;;;;;38.38;11.18;;;;;;;;;;5062805;28;20369;-63
2021/12/30 04:07:04;;;;;;;35.88;12.32;;;;;;;;;;5069972;28;20040;-63
2021/12/30 04:09:30;;;;;;;31.23;11.00;;;;;;;;;;5069252;28;20024;-63
2021/12/30 04:11:55;;;;;;;34.75;11.70;;;;;;;;;;5069850;28;20032;-63
2021/12/30 04:14:21;;;;;;;33.38;11.30;;;;;;;;;;5071714;28;20064;-63
2021/12/30 04:16:46;;;;;;;38.58;11.50;;;;;;;;;;5069247;28;20060;-63
2021/12/30 04:19:12;;;;;;;29.70;11.75;;;;;;;;;;5073103;28;20029;-63
2021/12/30 04:21:37;;;;;;;36.72;12.13;;;;;;;;;;5069568;28;20120;-63
2021/12/30 04:24:04;;;;;;;32.65;11.63;;;;;;;;;;5073085;28;20109;-63
2021/12/30 04:26:30;;;;;;;30.35;11.60;;;;;;;;;;5071378;28;20042;-63
2021/12/30 04:28:56;;;;;;;30.35;11.05;;;;;;;;;;5071972;28;20040;-63
2021/12/30 04:31:22;;;;;;;32.00;12.25;;;;;;;;;;5069615;28;20024;-69
2021/12/30 04:33:48;;;;;;;30.90;11.52;;;;;;;;;;5054174;28;20562;-69
2021/12/30 04:36:13;;;;;;;31.05;11.63;;;;;;;;;;5070225;28;20028;-69
2021/12/30 04:38:39;;;;;;;31.15;11.73;;;;;;;;;;5067593;28;20086;-70
2021/12/30 04:41:05;;;;;;;40.00;12.55;;;;;;;;;;5072020;28;20474;-69
2021/12/30 04:43:31;;;;;;;35.33;13.00;;;;;;;;;;5073050;28;20107;-69
2021/12/30 04:45:59;;;;;;;35.83;13.85;;;;;;;;;;5069799;28;20024;-69
2021/12/30 04:48:25;;;;;;;36.15;13.93;;;;;;;;;;5072057;28;20497;-68
2021/12/30 04:50:51;;;;;;;36.90;14.30;;;;;;;;;;5069217;28;20033;-68
2021/12/30 04:53:18;;;;;;;37.00;15.43;;;;;;;;;;5071399;28;20029;-69
2021/12/30 04:55:44;;;;;;;39.78;14.73;;;;;;;;;;5070268;28;20032;-69
2021/12/30 04:58:10;;;;;;;39.33;14.57;;;;;;;;;;5072607;28;20454;-69
2021/12/30 05:00:36;;;;;;;46.95;15.15;;;;;;;;;;5069600;28;20107;-72
2021/12/30 05:03:10;;;;;;;41.08;14.85;;;;;;;;;;5068843;28;20032;-68
2021/12/30 05:05:55;;;;;;;37.92;14.88;;;;;;;;;;5070692;28;20054;-72
2021/12/30 05:08:22;;;;;;;40.33;15.63;;;;;;;;;;5071190;28;20509;-68
2021/12/30 05:10:49;;;;;;;40.40;13.98;;;;;;;;;;5068963;28;20466;-68
2021/12/30 05:13:15;;;;;;;37.78;14.52;;;;;;;;;;5068369;28;20055;-68
2021/12/30 05:15:41;;;;;;;39.15;13.25;;;;;;;;;;5071483;28;20486;-68
2021/12/30 05:18:09;;;;;;;36.35;12.50;;;;;;;;;;5069192;28;20059;-68
2021/12/30 05:20:36;;;;;;;34.75;12.52;;;;;;;;;;5070726;28;20424;-66
2021/12/30 05:23:03;;;;;;;29.25;11.77;;;;;;;;;;5069757;28;20040;-65
2021/12/30 05:25:28;;;;;;;20.73;8.45;;;;;;;;;;5069594;28;20029;-64
2021/12/30 05:27:54;;;;;;;29.33;10.60;;;;;;;;;;5066777;28;20386;-65
2021/12/30 05:30:21;;;;;;;22.67;10.07;;;;;;;;;;5071558;28;20043;-65
2021/12/30 05:32:48;;;;;;;18.00;7.97;;;;;;;;;;5069401;28;20033;-65
2021/12/30 05:35:14;;;;;;;21.10;8.77;;;;;;;;;;5060776;28;20032;-64
2021/12/30 05:37:41;;;;;;;25.27;9.35;;;;;;;;;;5070594;28;20040;-66
2021/12/30 05:40:10;;;;;;;18.42;8.27;;;;;;;;;;5071861;28;20409;-63
2021/12/30 05:42:36;;;;;;;17.45;7.70;;;;;;;;;;5070336;28;20031;-63
2021/12/30 05:45:03;;;;;;;19.77;9.05;;;;;;;;;;5071057;28;20032;-62
2021/12/30 05:47:28;;;;;;;16.38;8.25;;;;;;;;;;5071465;28;20032;-63
2021/12/30 05:49:54;;;;;;;16.05;8.52;;;;;;;;;;5071100;28;20036;-63
2021/12/30 05:52:19;;;;;;;16.80;8.13;;;;;;;;;;5070959;28;20555;-63
2021/12/30 05:54:47;;;;;;;13.02;8.30;;;;;;;;;;5081256;28;20032;-62
2021/12/30 05:57:13;;;;;;;14.35;7.80;;;;;;;;;;5081893;28;20470;-63
2021/12/30 05:59:38;;;;;;;12.88;7.82;;;;;;;;;;5070344;28;20127;-64
2021/12/30 06:02:04;;;;;;;10.50;6.68;;;;;;;;;;5064920;28;20036;-63
2021/12/30 06:04:29;;;;;;;11.88;6.47;;;;;;;;;;5069898;28;20059;-63
2021/12/30 06:06:55;;;;;;;11.07;6.85;;;;;;;;;;5070518;28;20031;-62
2021/12/30 06:09:23;;;;;;;11.90;6.15;;;;;;;;;;5069850;28;20032;-62
2021/12/30 06:11:49;;;;;;;14.32;7.38;;;;;;;;;;5072532;28;20497;-63
2021/12/30 06:14:14;;;;;;;13.85;7.22;;;;;;;;;;5071515;28;20056;-62
2021/12/30 06:16:39;;;;;;;11.60;6.15;;;;;;;;;;5070774;28;20037;-64
2021/12/30 06:19:05;;;;;;;10.05;5.45;;;;;;;;;;5070255;28;20068;-63
2021/12/30 06:21:30;;;;;;;9.05;4.70;;;;;;;;;;5071349;28;20032;-63
2021/12/30 06:23:56;;;;;;;7.43;3.67;;;;;;;;;;5070379;28;20040;-63
2021/12/30 06:26:21;;;;;;;7.07;4.03;;;;;;;;;;5070793;28;20363;-63
2021/12/30 06:28:47;;;;;;;7.97;4.47;;;;;;;;;;5071051;28;20028;-64
2021/12/30 06:31:12;;;;;;;9.43;4.38;;;;;;;;;;5070138;28;20028;-64
2021/12/30 06:33:39;;;;;;;8.90;5.60;;;;;;;;;;5070218;28;20462;-64
2021/12/30 06:36:05;;;;;;;11.75;6.05;;;;;;;;;;5064870;28;20048;-64
2021/12/30 06:38:32;;;;;;;10.52;6.15;;;;;;;;;;5070914;28;20036;-63
2021/12/30 06:40:58;;;;;;;9.55;6.38;;;;;;;;;;5069093;28;20025;-63
2021/12/30 06:43:23;;;;;;;10.70;6.88;;;;;;;;;;5071285;28;20097;-63
2021/12/30 06:45:49;;;;;;;13.68;7.60;;;;;;;;;;5080459;28;20028;-64
2021/12/30 06:48:15;;;;;;;13.95;7.97;;;;;;;;;;5063053;28;20031;-64
2021/12/30 06:50:42;;;;;;;12.57;8.27;;;;;;;;;;5069375;28;20115;-64
2021/12/30 06:53:07;;;;;;;15.05;8.65;;;;;;;;;;5067058;28;20041;-63
2021/12/30 06:55:33;;;;;;;15.93;9.27;;;;;;;;;;5069435;28;20036;-63
2021/12/30 06:57:58;;;;;;;16.88;10.80;;;;;;;;;;5066728;28;20490;-63
2021/12/30 07:00:24;;;;;;;18.60;10.55;;;;;;;;;;5069081;28;20127;-63
2021/12/30 07:02:50;;;;;;;21.60;12.35;;;;;;;;;;5069826;28;20035;-64
2021/12/30 07:05:15;;;;;;;23.90;13.27;;;;;;;;;;5069281;28;20036;-64
2021/12/30 07:07:43;;;;;;;23.30;12.48;;;;;;;;;;5068871;28;20039;-63
2021/12/30 07:10:09;;;;;;;28.55;15.40;;;;;;;;;;5070788;28;20086;-64
2021/12/30 07:12:36;;;;;;;26.30;12.65;;;;;;;;;;5068857;28;20036;-64
2021/12/30 07:15:04;;;;;;;27.83;15.25;;;;;;;;;;5070917;28;20051;-64
2021/12/30 07:17:31;;;;;;;23.77;12.75;;;;;;;;;;5073292;28;20056;-63
2021/12/30 07:19:57;;;;;;;24.80;13.25;;;;;;;;;;5071219;28;20398;-64
2021/12/30 07:22:22;;;;;;;25.15;14.82;;;;;;;;;;5073766;28;20020;-65
2021/12/30 07:24:48;;;;;;;24.33;13.13;;;;;;;;;;5082678;28;20040;-64
2021/12/30 07:27:14;;;;;;;24.70;14.30;;;;;;;;;;5074530;28;20125;-64
2021/12/30 07:29:39;;;;;;;22.30;14.25;;;;;;;;;;5073967;28;20131;-63
2021/12/30 07:32:05;;;;;;;25.27;13.93;;;;;;;;;;5072230;28;20650;-63
2021/12/30 07:34:30;;;;;;;21.70;13.43;;;;;;;;;;5074002;28;20031;-64
2021/12/30 07:36:55;;;;;;;22.80;14.75;;;;;;;;;;5073762;28;20036;-64
2021/12/30 07:39:21;;;;;;;22.27;14.90;;;;;;;;;;5072036;28;20051;-66
2021/12/30 07:41:46;;;;;;;24.08;15.20;;;;;;;;;;5070495;28;20086;-63
2021/12/30 07:44:12;;;;;;;24.30;14.82;;;;;;;;;;5069116;28;20082;-67
2021/12/30 07:46:37;;;;;;;22.17;13.35;;;;;;;;;;5073056;28;20043;-67
2021/12/30 07:49:02;;;;;;;20.42;13.23;;;;;;;;;;5072821;28;20030;-65
2021/12/30 07:51:28;;;;;;;18.02;12.57;;;;;;;;;;5057622;28;20056;-65
2021/12/30 07:53:54;;;;;;;19.60;9.43;;;;;;;;;;5065431;28;20553;-65
2021/12/30 07:56:19;;;;;;;15.60;10.45;;;;;;;;;;5070592;28;20107;-66
2021/12/30 07:58:45;;;;;;;15.98;11.25;;;;;;;;;;5073459;28;20086;-65
2021/12/30 08:01:10;;;;;;;13.60;8.60;;;;;;;;;;5073580;28;20060;-64
2021/12/30 08:03:36;;;;;;;18.70;12.50;;;;;;;;;;5072200;28;20052;-65
2021/12/30 08:06:01;;;;;;;13.77;8.60;;;;;;;;;;5060658;28;20107;-65
2021/12/30 08:08:27;;;;;;;13.00;8.63;;;;;;;;;;5071308;28;20036;-65
2021/12/30 08:10:53;;;;;;;15.40;9.80;;;;;;;;;;5067184;28;20379;-65
2021/12/30 08:13:19;;;;;;;11.77;8.13;;;;;;;;;;5067650;28;20053;-64
2021/12/30 08:15:46;;;;;;;19.73;10.00;;;;;;;;;;5067334;28;20140;-65
2021/12/30 08:18:12;;;;;;;16.75;9.77;;;;;;;;;;5066560;28;20056;-65
2021/12/30 08:20:38;;;;;;;10.23;6.80;;;;;;;;;;5070898;28;20075;-64
2021/12/30 08:23:03;;;;;;;14.68;9.25;;;;;;;;;;5070433;28;20482;-64
2021/12/30 08:25:29;;;;;;;14.60;9.70;;;;;;;;;;5070721;28;20115;-65
2021/12/30 08:27:55;;;;;;;16.40;9.40;;;;;;;;;;5073669;28;20081;-65
2021/12/30 08:30:21;;;;;;;17.17;11.27;;;;;;;;;;5070892;28;20397;-65
2021/12/30 08:32:47;;;;;;;14.13;9.18;;;;;;;;;;5070213;28;20028;-66
2021/12/30 08:35:14;;;;;;;16.55;11.38;;;;;;;;;;5069849;28;20040;-65
2021/12/30 08:37:40;;;;;;;21.83;11.25;;;;;;;;;;5066574;28;20059;-65
2021/12/30 08:40:08;;;;;;;16.00;10.70;;;;;;;;;;5071980;28;20894;-65
2021/12/30 08:42:37;;;;;;;15.18;10.15;;;;;;;;;;5072556;28;20414;-65
2021/12/30 08:45:04;;;;;;;15.82;10.82;;;;;;;;;;5072166;28;20493;-64
2021/12/30 08:47:32;;;;;;;16.25;10.30;;;;;;;;;;5072764;28;20024;-64
2021/12/30 08:49:59;;;;;;;16.13;11.48;;;;;;;;;;5071068;28;20462;-65
2021/12/30 08:52:27;;;;;;;17.83;11.30;;;;;;;;;;5063209;28;20033;-64
2021/12/30 08:54:53;;;;;;;15.00;11.10;;;;;;;;;;5070477;28;20086;-65
2021/12/30 08:57:20;;;;;;;16.05;10.50;;;;;;;;;;5072765;28;20106;-65
2021/12/30 08:59:46;;;;;;;11.15;7.72;;;;;;;;;;5071784;28;20440;-66
2021/12/30 09:02:11;;;;;;;11.70;7.70;;;;;;;;;;5071255;28;20037;-65
2021/12/30 09:04:37;;;;;;;13.15;8.60;;;;;;;;;;5072177;28;20029;-64
2021/12/30 09:07:03;;;;;;;13.10;8.68;;;;;;;;;;5062880;28;20029;-65
2021/12/30 09:09:29;;;;;;;11.02;7.60;;;;;;;;;;5072034;28;20037;-64
2021/12/30 09:11:55;;;;;;;14.93;9.63;;;;;;;;;;5071132;28;20054;-65
2021/12/30 09:14:20;;;;;;;13.52;9.75;;;;;;;;;;5071749;28;20044;-63
2021/12/30 09:16:48;;;;;;;15.88;10.50;;;;;;;;;;5071089;28;20036;-64
2021/12/30 09:19:14;;;;;;;13.30;8.30;;;;;;;;;;5071005;28;20044;-64
2021/12/30 09:21:41;;;;;;;14.13;9.60;;;;;;;;;;5066947;28;20418;-63
2021/12/30 09:24:07;;;;;;;15.38;10.63;;;;;;;;;;5071394;28;20036;-63
2021/12/30 09:26:33;;;;;;;16.55;10.57;;;;;;;;;;5072517;28;20154;-64
2021/12/30 09:28:59;;;;;;;16.58;10.90;;;;;;;;;;5058703;28;20481;-65
2021/12/30 09:31:27;;;;;;;18.45;10.75;;;;;;;;;;5070079;28;20059;-65
2021/12/30 09:33:53;;;;;;;17.02;10.55;;;;;;;;;;5067166;28;20033;-66
2021/12/30 09:36:19;;;;;;;13.65;8.07;;;;;;;;;;5070564;28;20028;-64
2021/12/30 09:38:44;;;;;;;13.98;9.65;;;;;;;;;;5068739;28;20102;-64
2021/12/30 09:41:09;;;;;;;15.10;9.88;;;;;;;;;;5070513;28;20032;-64
2021/12/30 09:43:35;;;;;;;14.68;9.15;;;;;;;;;;5065901;28;20060;-64
2021/12/30 09:46:01;;;;;;;11.50;7.53;;;;;;;;;;5054673;28;20470;-64
2021/12/30 09:48:27;;;;;;;15.07;8.23;;;;;;;;;;5071959;28;20067;-64
2021/12/30 09:50:54;;;;;;;12.18;7.88;;;;;;;;;;5068809;28;20095;-66
2021/12/30 09:53:24;;;;;;;10.60;7.93;;;;;;;;;;5069340;28;20032;-64
2021/12/30 09:55:52;;;;;;;13.05;8.18;;;;;;;;;;5071653;28;20031;-65
2021/12/30 09:58:18;;;;;;;14.77;8.00;;;;;;;;;;5070331;28;20089;-64
2021/12/30 10:00:45;;;;;;;10.82;6.90;;;;;;;;;;5070569;28;20032;-64
2021/12/30 10:03:10;;;;;;;9.85;6.50;;;;;;;;;;5069662;28;20103;-63
2021/12/30 10:05:39;;;;;;;7.32;4.47;;;;;;;;;;5069746;28;20116;-63
2021/12/30 10:08:21;;;;;;;9.77;5.97;;;;;;;;;;5070114;28;20032;-63
2021/12/30 10:10:52;;;;;;;10.07;5.78;;;;;;;;;;5075813;28;20137;-63
2021/12/30 10:13:20;;;;;;;;;;;;;;;;;;5069274;28;20029;-62
2021/12/30 10:15:54;;;;;;;10.48;5.55;;;;;;;;;;5067754;28;19924;-63
2021/12/30 10:18:20;;;;;;;8.30;4.43;;;;;;;;;;5067482;28;20032;-63
2021/12/30 10:20:47;;;;;;;8.38;4.68;;;;;;;;;;5070852;28;20385;-64
2021/12/30 10:23:21;;;;;;;7.70;4.95;;;;;;;;;;5065908;28;20056;-64
2021/12/30 10:25:49;;;;;;;7.35;4.10;;;;;;;;;;5071522;28;20028;-64
2021/12/30 10:28:35;;;;;;;8.50;4.35;;;;;;;;;;5060366;28;20032;-64
2021/12/30 10:31:14;;;;;;;8.68;4.47;;;;;;;;;;5069296;28;20435;-66
2021/12/30 10:33:54;;;;;;;7.65;4.03;;;;;;;;;;5060763;28;20100;-66
2021/12/30 10:36:25;;;;;;;6.85;4.55;;;;;;;;;;5069579;28;20123;-66
2021/12/30 10:38:53;;;;;;;10.25;3.92;;;;;;;;;;5070000;28;20390;-66
2021/12/30 10:41:22;;;;;;;6.20;4.10;;;;;;;;;;5070351;28;20048;-66
2021/12/30 10:43:52;;;;;;;5.28;3.60;;;;;;;;;;5069841;28;20079;-65
2021/12/30 10:46:22;;;;;;;5.65;3.65;;;;;;;;;;5069946;28;20020;-66
2021/12/30 10:48:58;;;;;;;7.13;3.53;;;;;;;;;;5057562;28;20075;-65
2021/12/30 10:51:33;;;;;;;5.85;3.42;;;;;;;;;;5075252;28;20037;-65
2021/12/30 10:54:07;;;;;;;4.20;3.00;;;;;;;;;;5074125;28;20099;-66
2021/12/30 10:56:36;;;;;;;4.40;2.78;;;;;;;;;;5074831;28;20378;-65
2021/12/30 10:59:15;;;;;;;4.30;2.63;;;;;;;;;;5074065;28;20389;-65
2021/12/30 11:01:52;;;;;;;4.50;2.75;;;;;;;;;;5073740;28;20024;-68
2021/12/30 11:04:19;;;;;;;3.42;2.25;;;;;;;;;;5055559;28;20286;-66
2021/12/30 11:06:46;;;;;;;3.92;2.30;;;;;;;;;;5061659;28;20124;-66
2021/12/30 11:09:20;;;;;;;4.05;2.10;;;;;;;;;;5073275;28;20040;-66
2021/12/30 11:11:51;;;;;;;4.82;2.20;;;;;;;;;;5066001;28;20473;-66
2021/12/30 11:14:23;;;;;;;3.55;2.00;;;;;;;;;;5063411;28;20102;-67
2021/12/30 11:17:06;;;;;;;4.22;2.20;;;;;;;;;;5068320;28;20063;-64
2021/12/30 11:19:39;;;;;;;5.10;2.40;;;;;;;;;;5073948;28;20041;-65
2021/12/30 11:22:11;;;;;;;4.65;2.30;;;;;;;;;;5073093;28;20040;-68
2021/12/30 11:24:37;;;;;;;2.92;1.70;;;;;;;;;;5071436;28;20037;-66
2021/12/30 11:27:05;;;;;;;5.53;2.45;;;;;;;;;;5060353;28;20033;-66
2021/12/30 11:29:33;;;;;;;3.60;2.17;;;;;;;;;;5065482;28;20032;-66
2021/12/30 11:31:59;;;;;;;6.05;2.53;;;;;;;;;;5073606;28;20046;-70
2021/12/30 11:34:25;;;;;;;6.03;2.50;;;;;;;;;;5072976;28;20032;-67
2021/12/30 11:36:52;;;;;;;5.07;2.45;;;;;;;;;;5074197;28;20032;-65
2021/12/30 11:39:20;;;;;;;6.00;2.80;;;;;;;;;;5073683;28;20222;-66
2021/12/30 11:41:59;;;;;;;5.28;2.35;;;;;;;;;;5065205;28;20041;-66
2021/12/30 11:44:44;;;;;;;5.43;2.88;;;;;;;;;;5057234;28;20040;-67
2021/12/30 11:47:36;;;;;;;4.95;2.47;;;;;;;;;;5072930;28;20039;-67
2021/12/30 11:50:10;;;;;;;5.85;2.60;;;;;;;;;;5071983;28;20035;-65
2021/12/30 11:53:04;;;;;;;6.45;2.80;;;;;;;;;;5072598;28;20033;-64
2021/12/30 11:55:55;;;;;;;4.50;2.10;;;;;;;;;;5053551;28;20094;-64
2021/12/30 12:00:57;;;;;;;4.60;2.33;;;;;;;;;;5053357;28;20037;-64
2021/12/30 12:03:30;;;;;;;6.55;2.72;;;;;;;;;;5051475;28;20029;-63
2021/12/30 12:05:56;;;;;;;7.97;2.70;;;;;;;;;;5056398;28;20044;-63
2021/12/30 12:08:28;;;;;;;6.55;2.83;;;;;;;;;;5053780;28;20842;-63
2021/12/30 12:11:12;;;;;;;8.70;3.30;;;;;;;;;;5053900;28;20028;-63
2021/12/30 12:13:39;;;;;;;5.82;3.22;;;;;;;;;;5053425;28;20076;-63
2021/12/30 12:16:05;;;;;;;4.78;2.67;;;;;;;;;;5051234;28;20352;-63
2021/12/30 12:18:31;;;;;;;6.18;2.85;;;;;;;;;;5053648;28;20478;-63
2021/12/30 12:21:00;;;;;;;6.15;3.28;;;;;;;;;;5052378;28;20467;-63
2021/12/30 12:23:37;;;;;;;8.05;2.75;;;;;;;;;;5053142;28;20071;-63
2021/12/30 12:26:11;;;;;;;6.88;2.35;;;;;;;;;;5052929;28;20040;-67
2021/12/30 12:28:38;;;;;;;3.78;2.10;;;;;;;;;;5053353;28;20055;-63
2021/12/30 12:31:08;;;;;;;5.05;2.92;;;;;;;;;;5071148;28;20040;-67
2021/12/30 12:33:36;;;;;;;4.47;2.72;;;;;;;;;;5071732;28;20949;-64
2021/12/30 12:36:23;;;;;;;6.68;2.70;;;;;;;;;;5069349;28;20029;-63
2021/12/30 12:38:50;;;;;;;6.75;2.80;;;;;;;;;;5061003;28;20037;-63
2021/12/30 12:41:26;;;;;;;10.35;2.88;;;;;;;;;;5060413;28;20043;-62
2021/12/30 12:44:01;;;;;;;6.30;2.90;;;;;;;;;;5081424;28;20028;-63
2021/12/30 12:46:56;;;;;;;7.50;3.30;;;;;;;;;;5059783;28;20496;-63
2021/12/30 12:49:33;;;;;;;6.93;3.35;;;;;;;;;;5061718;28;20036;-63
2021/12/30 12:52:00;;;;;;;9.15;3.75;;;;;;;;;;5065587;28;20081;-63
2021/12/30 12:54:37;;;;;;;5.07;3.22;;;;;;;;;;5071479;28;20513;-63
2021/12/30 12:57:17;;;;;;;6.75;3.00;;;;;;;;;;5067468;28;20070;-62
2021/12/30 12:59:43;;;;;;;6.57;3.00;;;;;;;;;;5072362;28;20032;-63
2021/12/30 13:02:11;;;;;;;6.38;2.97;;;;;;;;;;5071557;28;20086;-63
2021/12/30 13:04:37;;;;;;;6.47;2.90;;;;;;;;;;5073151;28;20122;-63
2021/12/30 13:07:12;;;;;;;10.75;3.80;;;;;;;;;;5071620;28;20040;-62
2021/12/30 13:09:38;;;;;;;9.32;4.47;;;;;;;;;;5070276;28;20114;-64
2021/12/30 13:12:07;;;;;;;8.75;3.97;;;;;;;;;;5069124;28;20033;-66
2021/12/30 13:14:32;;;;;;;6.32;3.33;;;;;;;;;;5072604;28;20048;-63
2021/12/30 13:17:09;;;;;;;6.15;3.08;;;;;;;;;;5079579;28;20032;-63
2021/12/30 13:19:47;;;;;;;7.15;3.40;;;;;;;;;;5070637;28;20036;-64
2021/12/30 13:22:15;;;;;;;11.65;3.40;;;;;;;;;;5063030;28;20039;-64
2021/12/30 13:24:52;;;;;;;7.82;3.42;;;;;;;;;;5065807;28;20065;-64
2021/12/30 13:27:17;;;;;;;7.28;3.55;;;;;;;;;;5061863;28;20032;-63
2021/12/30 13:29:55;;;;;;;6.03;3.08;;;;;;;;;;5061216;28;20064;-63
2021/12/30 13:32:32;;;;;;;11.25;4.20;;;;;;;;;;5071006;28;20032;-64
2021/12/30 13:35:09;;;;;;;8.75;3.70;;;;;;;;;;5062546;28;20037;-64
2021/12/30 13:37:40;;;;;;;8.32;3.67;;;;;;;;;;5067191;28;20036;-64
2021/12/30 13:40:20;;;;;;;7.60;3.90;;;;;;;;;;5053309;28;20033;-66
2021/12/30 13:42:48;;;;;;;6.65;3.50;;;;;;;;;;5062244;28;20089;-63
2021/12/30 13:45:13;;;;;;;7.45;4.20;;;;;;;;;;5066878;28;20028;-63
2021/12/30 13:47:39;;;;;;;10.32;3.88;;;;;;;;;;5050292;28;20532;-63
2021/12/30 13:50:16;;;;;;;6.75;3.40;;;;;;;;;;5059889;28;20438;-67
2021/12/30 13:52:44;;;;;;;8.35;3.78;;;;;;;;;;5070827;28;20486;-63
2021/12/30 13:55:15;;;;;;;7.13;3.50;;;;;;;;;;5070525;28;20032;-64
2021/12/30 13:57:44;;;;;;;8.88;3.42;;;;;;;;;;5071912;28;20149;-64
2021/12/30 14:00:13;;;;;;;5.72;3.13;;;;;;;;;;5066848;28;20029;-64
2021/12/30 14:02:39;;;;;;;8.77;3.60;;;;;;;;;;5050925;28;20037;-63
2021/12/30 14:05:14;;;;;;;6.07;3.28;;;;;;;;;;5058563;28;20078;-64
2021/12/30 14:07:48;;;;;;;5.82;2.92;;;;;;;;;;5070813;28;20474;-63
2021/12/30 14:10:15;;;;;;;6.75;3.35;;;;;;;;;;5069284;28;20036;-63
2021/12/30 14:13:02;;;;;;;7.70;3.45;;;;;;;;;;5071322;28;20078;-62
2021/12/30 14:15:33;;;;;;;8.05;3.70;;;;;;;;;;5062447;28;20482;-63
2021/12/30 14:18:10;;;;;;;4.70;2.58;;;;;;;;;;5052280;28;20051;-63
2021/12/30 14:20:37;;;;;;;5.72;2.67;;;;;;;;;;5064303;28;20063;-63
2021/12/30 14:23:03;;;;;;;8.50;3.05;;;;;;;;;;5072083;28;20062;-63
2021/12/30 14:25:30;;;;;;;5.57;2.92;;;;;;;;;;5072674;28;20547;-65
2021/12/30 14:27:57;;;;;;;5.15;2.72;;;;;;;;;;5074078;28;20470;-63
2021/12/30 14:30:23;;;;;;;5.80;3.03;;;;;;;;;;5074482;28;20029;-65
2021/12/30 14:32:49;;;;;;;5.55;2.58;;;;;;;;;;5075649;28;20043;-64
2021/12/30 14:35:16;;;;;;;8.90;3.20;;;;;;;;;;5075959;28;20036;-64
2021/12/30 14:37:44;;;;;;;5.80;3.13;;;;;;;;;;5074928;28;20048;-63